Time;durP1;ratioP1;P1;durP2;ratioP2;P2;SDS_P1;SDS_P2;PMS_P1;PMS_P2;Temp;Humidity;BMP_temperature;BMP_pressure;BME280_temperature;BME280_humidity;BME280_pressure;Samples;Min_cycle;Max_cycle;Signal;HPM_P1;HPM_P2
2022/08/04 00:00:12;;;;;;;8.50;3.90;;;20.50;99.90;;;;;;4962993;28;20043;-84
2022/08/04 00:02:56;;;;;;;15.75;5.07;;;20.40;99.90;;;;;;4946188;28;20451;-84
2022/08/04 00:05:34;;;;;;;16.95;5.80;;;20.40;99.90;;;;;;4946956;28;20558;-84
2022/08/04 00:08:15;;;;;;;10.55;4.80;;;20.40;99.90;;;;;;4946964;28;20054;-84
2022/08/04 00:10:48;;;;;;;15.65;5.95;;;20.40;99.90;;;;;;4962432;28;20051;-84
2022/08/04 00:13:15;;;;;;;12.70;5.90;;;19.60;99.90;;;;;;4963125;28;20046;-85
2022/08/04 00:15:42;;;;;;;13.30;5.25;;;20.30;99.90;;;;;;4962184;28;20046;-84
2022/08/04 00:18:13;;;;;;;15.50;5.50;;;20.40;99.90;;;;;;4947168;28;20095;-84
2022/08/04 00:20:41;;;;;;;14.13;6.18;;;20.30;99.90;;;;;;4962505;28;20498;-84
2022/08/04 00:23:08;;;;;;;14.55;7.05;;;20.40;99.90;;;;;;4946460;28;20096;-84
2022/08/04 00:25:39;;;;;;;19.92;6.25;;;20.30;99.90;;;;;;4947085;28;20058;-84
2022/08/04 00:28:05;;;;;;;11.20;5.68;;;20.30;99.90;;;;;;4961815;28;20051;-84
2022/08/04 00:30:31;;;;;;;13.68;5.85;;;20.30;99.90;;;;;;4963215;28;20387;-85
2022/08/04 00:32:57;;;;;;;13.98;6.05;;;20.40;99.90;;;;;;4945794;28;20051;-85
2022/08/04 00:35:23;;;;;;;19.02;6.95;;;20.30;99.90;;;;;;4947176;28;20038;-85
2022/08/04 00:37:51;;;;;;;14.90;5.57;;;20.30;99.90;;;;;;4945945;28;20517;-85
2022/08/04 00:40:22;;;;;;;11.85;6.60;;;20.30;99.90;;;;;;4930377;28;20039;-84
2022/08/04 00:43:07;;;;;;;19.45;7.43;;;20.30;99.90;;;;;;4962464;28;20046;-85
2022/08/04 00:45:44;;;;;;;20.08;6.18;;;20.30;99.90;;;;;;4961438;28;20055;-84
2022/08/04 00:48:26;;;;;;;13.95;6.38;;;20.30;99.90;;;;;;4962381;28;20051;-85
2022/08/04 00:51:09;;;;;;;13.60;6.07;;;20.30;99.90;;;;;;4946431;28;21294;-84
2022/08/04 00:53:46;;;;;;;16.17;6.28;;;20.30;99.90;;;;;;4961786;28;20054;-84
2022/08/04 00:56:33;;;;;;;26.45;7.20;;;20.30;99.90;;;;;;4946585;28;20043;-84
2022/08/04 00:59:14;;;;;;;17.00;6.93;;;20.30;99.90;;;;;;4962018;28;20043;-85
2022/08/04 01:01:47;;;;;;;17.65;6.32;;;20.30;99.90;;;;;;4962024;28;20093;-85
2022/08/04 01:04:23;;;;;;;;;;;20.30;99.90;;;;;;4963537;28;20116;-84
2022/08/04 01:07:04;;;;;;;16.50;6.82;;;20.80;99.90;;;;;;4994722;28;19945;-84
2022/08/04 01:10:09;;;;;;;19.42;7.13;;;20.30;99.90;;;;;;4962357;28;20554;-84
2022/08/04 01:12:53;;;;;;;12.10;6.72;;;20.30;99.90;;;;;;4946374;28;20043;-84
2022/08/04 01:15:45;;;;;;;17.05;6.20;;;20.30;99.90;;;;;;4945315;28;20491;-85
2022/08/04 01:18:22;;;;;;;15.77;7.43;;;20.30;99.90;;;;;;4946499;28;20417;-84
2022/08/04 01:20:59;;;;;;;14.18;6.10;;;20.30;99.90;;;;;;4961942;28;20047;-84
2022/08/04 01:23:46;;;;;;;14.50;6.95;;;20.30;99.90;;;;;;4962169;28;20053;-83
2022/08/04 01:26:35;;;;;;;15.50;6.35;;;20.30;99.90;;;;;;4962676;28;20050;-83
2022/08/04 01:29:22;;;;;;;15.05;6.72;;;20.30;99.90;;;;;;4946176;28;20411;-83
2022/08/04 01:32:03;;;;;;;12.93;7.00;;;20.30;99.90;;;;;;4962265;28;20082;-84
2022/08/04 01:34:42;;;;;;;17.00;6.53;;;20.20;99.90;;;;;;4963184;28;20061;-84
2022/08/04 01:37:35;;;;;;;9.85;5.68;;;20.20;99.90;;;;;;4945941;28;20058;-84
2022/08/04 01:40:07;;;;;;;22.70;6.45;;;20.20;99.90;;;;;;4961834;28;20741;-84
2022/08/04 01:42:35;;;;;;;12.73;6.30;;;20.20;99.90;;;;;;4949664;28;20047;-83
2022/08/04 01:45:09;;;;;;;12.57;5.70;;;20.10;99.90;;;;;;4948813;28;20117;-82
2022/08/04 01:47:56;;;;;;;16.25;5.80;;;20.10;99.90;;;;;;4934018;28;20054;-82
2022/08/04 01:50:22;;;;;;;9.68;5.60;;;20.10;99.90;;;;;;4998025;28;20120;-82
2022/08/04 01:52:52;;;;;;;15.38;5.70;;;20.10;99.90;;;;;;4965579;28;20113;-82
2022/08/04 01:55:18;;;;;;;13.80;6.47;;;20.00;99.90;;;;;;4934293;28;20078;-82
2022/08/04 01:57:52;;;;;;;10.57;5.82;;;20.00;99.90;;;;;;4965670;28;20407;-82
2022/08/04 02:00:21;;;;;;;14.00;7.20;;;20.00;99.90;;;;;;4966852;28;20093;-82
2022/08/04 02:02:49;;;;;;;15.02;6.75;;;20.00;99.90;;;;;;4954716;28;20104;-82
2022/08/04 02:05:17;;;;;;;17.00;8.32;;;20.00;99.90;;;;;;4974862;28;20046;-82
2022/08/04 02:08:01;;;;;;;11.98;6.00;;;20.00;99.90;;;;;;4944179;28;20042;-82
2022/08/04 02:10:31;;;;;;;13.23;6.20;;;20.00;99.90;;;;;;4961323;28;20046;-82
2022/08/04 02:13:06;;;;;;;15.82;7.10;;;19.90;99.90;;;;;;4960372;28;20051;-82
2022/08/04 02:15:37;;;;;;;21.40;7.28;;;19.90;99.90;;;;;;4977837;28;20047;-82
2022/08/04 02:18:11;;;;;;;13.10;6.55;;;19.90;99.90;;;;;;4976472;28;20046;-82
2022/08/04 02:20:42;;;;;;;21.65;6.57;;;19.90;99.90;;;;;;4961632;28;20628;-82
2022/08/04 02:23:13;;;;;;;15.93;6.82;;;19.90;99.90;;;;;;4973418;28;20034;-81
2022/08/04 02:26:11;;;;;;;23.50;6.55;;;19.90;99.90;;;;;;4989562;28;20035;-80
2022/08/04 02:28:46;;;;;;;8.50;5.15;;;19.80;99.90;;;;;;4981206;28;20098;-82
2022/08/04 02:31:33;;;;;;;15.57;7.38;;;19.80;99.90;;;;;;4961666;28;20490;-82
2022/08/04 02:34:13;;;;;;;18.20;6.28;;;19.80;99.90;;;;;;4976392;28;20039;-82
2022/08/04 02:36:41;;;;;;;13.88;6.32;;;19.80;99.90;;;;;;4981162;28;20039;-82
2022/08/04 02:39:09;;;;;;;17.17;5.85;;;19.80;99.90;;;;;;4988796;28;20046;-82
2022/08/04 02:41:36;;;;;;;14.75;5.95;;;19.80;99.90;;;;;;4971826;28;20039;-82
2022/08/04 02:44:05;;;;;;;22.45;6.30;;;19.70;99.90;;;;;;4971285;28;20039;-82
2022/08/04 02:46:32;;;;;;;13.23;6.40;;;19.70;99.90;;;;;;4979305;28;20046;-83
2022/08/04 02:49:01;;;;;;;21.85;7.40;;;19.80;99.90;;;;;;4966595;28;20112;-82
2022/08/04 02:51:30;;;;;;;14.40;6.32;;;19.80;99.90;;;;;;4965256;28;20062;-82
2022/08/04 02:53:57;;;;;;;15.60;6.18;;;19.80;99.90;;;;;;4948224;28;20462;-82
2022/08/04 02:56:27;;;;;;;16.15;5.68;;;19.70;99.90;;;;;;4948771;28;20097;-82
2022/08/04 02:59:02;;;;;;;17.95;6.97;;;19.80;99.90;;;;;;4948808;28;20035;-82
2022/08/04 03:01:29;;;;;;;14.70;6.38;;;19.70;99.90;;;;;;4948683;28;20047;-82
2022/08/04 03:04:16;;;;;;;17.23;6.40;;;19.70;99.90;;;;;;4965004;28;20406;-83
2022/08/04 03:06:51;;;;;;;12.73;5.80;;;19.70;99.90;;;;;;4948752;28;20066;-83
2022/08/04 03:09:35;;;;;;;15.68;6.13;;;19.70;99.90;;;;;;4949115;28;20127;-83
2022/08/04 03:12:19;;;;;;;14.02;6.35;;;19.70;99.90;;;;;;4963571;28;20047;-82
2022/08/04 03:14:53;;;;;;;17.55;5.50;;;19.60;99.90;;;;;;4947699;28;20051;-83
2022/08/04 03:17:49;;;;;;;13.98;6.03;;;19.60;99.90;;;;;;4948620;28;20546;-82
2022/08/04 03:20:34;;;;;;;12.70;5.63;;;19.60;99.90;;;;;;4947133;28;20119;-82
2022/08/04 03:23:37;;;;;;;15.73;5.63;;;19.50;99.90;;;;;;4947223;28;20050;-82
2022/08/04 03:26:27;;;;;;;19.50;7.32;;;19.50;99.90;;;;;;4948157;28;20043;-82
2022/08/04 03:29:21;;;;;;;13.13;5.65;;;19.50;99.90;;;;;;4947299;28;20047;-83
2022/08/04 03:32:08;;;;;;;11.90;5.38;;;19.50;99.90;;;;;;5019215;28;20054;-82
2022/08/04 03:34:52;;;;;;;13.93;5.55;;;19.50;99.90;;;;;;4963946;28;20051;-82
2022/08/04 03:37:44;;;;;;;10.52;5.80;;;19.40;99.90;;;;;;4962640;28;20047;-82
2022/08/04 03:40:44;;;;;;;12.85;5.15;;;19.40;99.90;;;;;;4977130;28;20103;-81
2022/08/04 03:43:28;;;;;;;15.20;5.43;;;19.40;99.90;;;;;;4963781;28;20082;-82
2022/08/04 03:46:13;;;;;;;12.05;5.10;;;19.40;99.90;;;;;;4962753;28;20050;-82
2022/08/04 03:49:09;;;;;;;10.20;5.65;;;19.40;99.90;;;;;;4962888;28;20133;-82
2022/08/04 03:55:18;;;;;;;13.23;6.15;;;19.40;99.90;;;;;;4963159;28;20050;-82
2022/08/04 03:58:35;;;;;;;15.63;5.72;;;19.40;99.90;;;;;;4962313;28;20043;-82
2022/08/04 04:01:19;;;;;;;16.90;5.90;;;19.40;99.90;;;;;;4979668;28;20081;-82
2022/08/04 04:03:47;;;;;;;16.55;5.30;;;19.40;99.90;;;;;;4962817;28;20043;-82
2022/08/04 04:06:41;;;;;;;13.38;5.80;;;19.40;99.90;;;;;;4946875;28;20422;-82
2022/08/04 04:09:24;;;;;;;11.65;5.65;;;19.40;99.90;;;;;;4947202;28;20051;-82
2022/08/04 04:12:15;;;;;;;17.77;5.95;;;19.50;99.90;;;;;;4962525;28;20136;-82
2022/08/04 04:15:08;;;;;;;13.48;5.43;;;19.50;99.90;;;;;;4946562;28;20050;-82
2022/08/04 04:18:12;;;;;;;14.85;5.60;;;19.60;99.90;;;;;;4947113;28;20047;-82
2022/08/04 04:20:57;;;;;;;;;;;19.60;99.90;;;;;;4947113;28;20051;-82
2022/08/04 04:23:35;;;;;;;12.27;5.30;;;19.70;99.90;;;;;;4945900;28;20131;-82
2022/08/04 04:26:25;;;;;;;10.68;5.47;;;19.70;99.90;;;;;;4963561;28;20050;-82
2022/08/04 04:29:00;;;;;;;16.15;5.85;;;19.80;99.90;;;;;;4946279;28;20073;-82
2022/08/04 04:31:48;;;;;;;11.75;6.72;;;19.90;99.90;;;;;;4946540;28;20043;-82
2022/08/04 04:34:23;;;;;;;15.95;6.50;;;19.90;99.90;;;;;;4946954;28;20130;-82
2022/08/04 04:36:57;;;;;;;11.63;5.72;;;19.90;99.90;;;;;;4945562;28;20130;-82
2022/08/04 04:39:50;;;;;;;13.13;5.72;;;20.00;99.90;;;;;;4962721;28;20050;-83
2022/08/04 04:42:38;;;;;;;10.45;5.25;;;20.10;99.90;;;;;;4946836;28;20524;-82
2022/08/04 04:45:25;;;;;;;23.23;6.03;;;20.10;99.90;;;;;;4946242;28;20046;-82
2022/08/04 04:48:07;;;;;;;23.20;5.43;;;20.20;99.90;;;;;;4946706;28;20051;-83
2022/08/04 04:51:01;;;;;;;11.67;5.87;;;20.30;99.90;;;;;;4946621;28;20136;-82
2022/08/04 04:53:34;;;;;;;12.50;5.60;;;20.30;99.90;;;;;;4961450;28;20047;-82
2022/08/04 04:56:18;;;;;;;18.95;6.25;;;20.30;99.90;;;;;;4947103;28;20039;-82
2022/08/04 04:58:43;;;;;;;11.32;5.00;;;20.40;99.90;;;;;;4961638;28;20272;-83
2022/08/04 05:01:15;;;;;;;21.25;6.05;;;20.40;99.90;;;;;;4945951;28;20070;-82
2022/08/04 05:03:53;;;;;;;19.10;6.03;;;20.50;99.90;;;;;;4946897;28;20138;-82
2022/08/04 05:06:18;;;;;;;13.02;5.30;;;20.50;99.90;;;;;;4946363;28;20047;-82
2022/08/04 05:09:09;;;;;;;11.73;5.50;;;20.50;99.90;;;;;;4946694;28;20499;-82
2022/08/04 05:12:02;;;;;;;8.60;5.60;;;20.60;99.90;;;;;;4945757;28;20043;-82
2022/08/04 05:14:34;;;;;;;13.23;5.18;;;20.70;99.90;;;;;;4945540;28;20046;-82
2022/08/04 05:17:26;;;;;;;15.55;4.68;;;20.70;99.90;;;;;;4966429;28;20089;-85
2022/08/04 05:20:06;;;;;;;11.45;5.05;;;20.70;99.90;;;;;;4948793;28;20482;-85
2022/08/04 05:22:39;;;;;;;11.23;5.30;;;20.80;99.90;;;;;;4949645;28;20047;-84
2022/08/04 05:25:12;;;;;;;20.00;6.35;;;20.80;99.90;;;;;;4949087;28;20042;-84
2022/08/04 05:27:45;;;;;;;11.05;4.57;;;20.90;99.90;;;;;;4948939;28;20066;-84
2022/08/04 05:30:11;;;;;;;;;;;21.00;99.90;;;;;;4950513;28;20099;-84
2022/08/04 05:32:56;;;;;;;16.00;5.38;;;21.00;99.90;;;;;;4996805;28;20332;-84
2022/08/04 05:35:29;;;;;;;16.30;5.18;;;21.10;99.90;;;;;;4949076;28;20034;-84
2022/08/04 05:37:56;;;;;;;15.80;5.43;;;21.20;99.90;;;;;;4965242;28;20608;-85
2022/08/04 05:40:23;;;;;;;10.85;4.55;;;21.30;99.90;;;;;;4964813;28;20092;-85
2022/08/04 05:42:52;;;;;;;10.75;5.35;;;21.40;99.90;;;;;;4949967;28;20389;-84
2022/08/04 05:45:19;;;;;;;12.38;4.70;;;21.40;99.90;;;;;;4964686;28;20039;-84
2022/08/04 05:47:46;;;;;;;7.68;4.68;;;21.50;99.90;;;;;;4981951;28;20124;-82
2022/08/04 05:50:13;;;;;;;12.60;4.28;;;21.60;99.90;;;;;;4948624;28;20482;-83
2022/08/04 05:52:40;;;;;;;14.57;4.60;;;21.70;99.90;;;;;;4948588;28;20059;-86
2022/08/04 05:55:07;;;;;;;20.50;4.90;;;21.80;99.90;;;;;;4933504;28;20410;-85
2022/08/04 05:57:35;;;;;;;10.80;4.32;;;21.90;99.90;;;;;;4964211;28;20043;-86
2022/08/04 06:00:04;;;;;;;10.27;4.68;;;21.90;99.90;;;;;;4965572;28;20054;-87
2022/08/04 06:02:31;;;;;;;10.98;3.58;;;22.00;99.90;;;;;;4932241;28;20043;-86
2022/08/04 06:04:59;;;;;;;12.70;4.57;;;22.10;99.90;;;;;;4965504;28;20047;-86
2022/08/04 06:07:25;;;;;;;9.05;3.28;;;22.10;99.90;;;;;;4948033;28;20090;-86
2022/08/04 06:09:51;;;;;;;13.05;4.85;;;22.20;99.90;;;;;;4948295;28;20093;-86
2022/08/04 06:12:42;;;;;;;12.18;4.00;;;22.30;99.90;;;;;;4948808;28;20067;-87
2022/08/04 06:15:16;;;;;;;8.50;3.85;;;22.40;99.90;;;;;;4947597;28;20050;-85
2022/08/04 06:17:49;;;;;;;14.40;4.10;;;22.50;99.90;;;;;;4949031;28;20058;-85
2022/08/04 06:20:16;;;;;;;11.50;4.70;;;22.60;99.90;;;;;;4964518;28;20433;-87
2022/08/04 06:22:45;;;;;;;12.13;3.95;;;22.80;99.90;;;;;;4947741;28;20532;-85
2022/08/04 06:25:16;;;;;;;9.75;4.00;;;22.90;99.90;;;;;;4948793;28;20130;-86
2022/08/04 06:27:42;;;;;;;13.25;3.60;;;23.10;99.90;;;;;;4947450;28;20043;-85
2022/08/04 06:30:13;;;;;;;7.90;2.92;;;23.20;99.90;;;;;;4966499;28;20054;-86
2022/08/04 06:32:54;;;;;;;13.93;4.35;;;23.40;99.90;;;;;;4947919;28;20046;-83
2022/08/04 06:35:20;;;;;;;10.32;4.20;;;23.50;99.90;;;;;;4948065;28;20047;-84
2022/08/04 06:37:49;;;;;;;9.23;3.25;;;23.60;99.90;;;;;;4948882;28;20051;-87
2022/08/04 06:40:18;;;;;;;11.55;3.75;;;23.60;99.90;;;;;;4947316;28;20053;-87
2022/08/04 06:42:46;;;;;;;7.38;3.40;;;23.70;99.90;;;;;;4964648;28;20039;-87
2022/08/04 06:45:13;;;;;;;6.45;2.70;;;23.70;99.90;;;;;;4947659;28;20126;-87
2022/08/04 06:47:40;;;;;;;5.53;2.72;;;23.20;99.90;;;;;;4933053;28;20398;-87
2022/08/04 06:50:08;;;;;;;7.75;3.10;;;23.90;99.90;;;;;;4947361;28;20051;-86
2022/08/04 06:52:35;;;;;;;9.38;3.80;;;24.00;99.90;;;;;;4947763;28;20098;-88
2022/08/04 06:55:01;;;;;;;7.78;3.38;;;24.00;99.90;;;;;;4948705;28;20035;-88
2022/08/04 06:57:28;;;;;;;10.65;2.65;;;24.10;99.90;;;;;;4963011;28;20050;-89
2022/08/04 07:00:00;;;;;;;4.47;2.33;;;24.20;99.90;;;;;;4964878;28;20054;-88
2022/08/04 07:02:37;;;;;;;11.65;3.30;;;24.20;99.90;;;;;;4979182;28;20047;-88
2022/08/04 07:05:05;;;;;;;5.22;2.40;;;24.30;99.90;;;;;;4947947;28;20454;-86
2022/08/04 07:07:32;;;;;;;7.10;2.50;;;24.30;99.90;;;;;;4947862;28;20055;-87
2022/08/04 07:09:58;;;;;;;6.60;2.00;;;24.40;99.90;;;;;;4964131;28;20133;-88
2022/08/04 07:12:24;;;;;;;6.85;2.85;;;24.50;99.90;;;;;;4964871;28;20054;-89
2022/08/04 07:14:50;;;;;;;7.60;2.50;;;24.60;99.90;;;;;;4963451;28;20047;-89
2022/08/04 07:17:19;;;;;;;7.72;2.38;;;24.70;99.90;;;;;;4932834;28;20138;-89
2022/08/04 07:19:46;;;;;;;4.18;2.17;;;24.80;99.90;;;;;;4964196;28;20049;-90
2022/08/04 07:22:12;;;;;;;7.10;2.08;;;24.90;99.90;;;;;;4933401;28;20490;-87
2022/08/04 07:24:38;;;;;;;5.40;1.98;;;25.10;99.90;;;;;;4933054;28;20053;-88
2022/08/04 07:27:05;;;;;;;7.15;2.88;;;25.30;99.90;;;;;;4964458;28;20047;-87
2022/08/04 07:29:33;;;;;;;10.30;2.50;;;25.40;99.90;;;;;;4967381;28;20054;-88
2022/08/04 07:32:00;;;;;;;7.30;2.40;;;25.50;99.90;;;;;;4950469;28;20043;-89
2022/08/04 07:34:27;;;;;;;10.82;2.03;;;25.60;99.90;;;;;;4968548;28;20414;-88
2022/08/04 07:36:55;;;;;;;7.70;1.90;;;25.70;99.90;;;;;;4951621;28;20391;-88
2022/08/04 07:39:22;;;;;;;5.07;1.70;;;25.80;99.90;;;;;;4950451;28;20051;-87
2022/08/04 07:41:49;;;;;;;6.82;2.25;;;25.90;99.90;;;;;;4981408;28;20437;-90
2022/08/04 07:44:15;;;;;;;3.55;2.00;;;25.90;99.90;;;;;;4996695;28;20047;-90
2022/08/04 07:46:42;;;;;;;7.05;2.25;;;25.90;99.90;;;;;;4949262;28;20070;-88
2022/08/04 07:49:08;;;;;;;5.53;2.22;;;25.90;99.90;;;;;;4947291;28;20474;-89
2022/08/04 07:51:35;;;;;;;4.15;1.75;;;26.00;99.90;;;;;;4950127;28;20055;-88
2022/08/04 07:54:06;;;;;;;6.45;2.17;;;26.10;99.90;;;;;;4965135;28;20057;-88
2022/08/04 07:56:34;;;;;;;5.63;1.67;;;26.20;99.90;;;;;;4949185;28;20393;-87
2022/08/04 07:59:00;;;;;;;9.07;2.38;;;26.30;99.90;;;;;;4964152;28;20039;-88
2022/08/04 08:01:26;;;;;;;10.82;2.47;;;26.40;99.90;;;;;;4949201;28;20047;-88
2022/08/04 08:03:54;;;;;;;10.82;3.15;;;26.50;99.90;;;;;;4967949;28;20046;-89
2022/08/04 08:06:21;;;;;;;5.68;1.75;;;26.60;99.90;;;;;;4947682;28;20525;-88
2022/08/04 08:08:47;;;;;;;5.45;1.70;;;26.70;99.90;;;;;;4948940;28;20081;-89
2022/08/04 08:11:14;;;;;;;11.10;2.80;;;26.80;99.90;;;;;;4947000;28;20070;-89
2022/08/04 08:13:39;;;;;;;5.18;2.65;;;26.90;99.90;;;;;;4963258;28;20046;-84
2022/08/04 08:16:06;;;;;;;6.80;1.95;;;27.10;99.90;;;;;;4962701;28;20050;-85
2022/08/04 08:18:31;;;;;;;8.07;3.03;;;27.30;99.90;;;;;;4946813;28;20183;-86
2022/08/04 08:20:57;;;;;;;11.38;2.85;;;27.40;99.90;;;;;;4931248;28;20129;-87
2022/08/04 08:23:25;;;;;;;5.60;2.83;;;27.30;99.90;;;;;;4961538;28;20122;-86
2022/08/04 08:25:50;;;;;;;8.55;3.53;;;27.20;99.90;;;;;;4947690;28;20065;-86
2022/08/04 08:28:16;;;;;;;9.20;3.15;;;27.20;99.90;;;;;;4961622;28;20051;-86
2022/08/04 08:30:42;;;;;;;5.22;2.40;;;27.20;99.90;;;;;;4963147;28;20043;-86
2022/08/04 08:33:13;;;;;;;7.20;3.58;;;27.20;99.90;;;;;;4930344;28;20482;-86
2022/08/04 08:36:06;;;;;;;7.20;3.05;;;27.20;99.90;;;;;;4961656;28;20053;-87
2022/08/04 08:38:51;;;;;;;5.88;2.63;;;27.10;99.90;;;;;;4947121;28;20252;-87
2022/08/04 08:41:19;;;;;;;5.82;3.33;;;27.10;99.90;;;;;;4945543;28;20137;-85
2022/08/04 08:44:03;;;;;;;7.93;3.00;;;27.10;99.90;;;;;;4963128;28;20498;-87
2022/08/04 08:46:51;;;;;;;6.95;3.58;;;27.10;99.90;;;;;;4962802;28;20412;-87
2022/08/04 08:49:44;;;;;;;8.68;3.20;;;27.10;99.90;;;;;;4961253;28;20402;-88
2022/08/04 08:52:31;;;;;;;6.82;3.35;;;27.10;99.90;;;;;;4946524;28;20108;-89
2022/08/04 08:55:37;;;;;;;7.30;2.83;;;27.20;99.90;;;;;;4963133;28;20149;-87
2022/08/04 08:58:28;;;;;;;6.68;2.90;;;27.30;99.90;;;;;;4962209;28;20058;-88
2022/08/04 09:01:11;;;;;;;6.68;3.20;;;27.40;99.90;;;;;;4947313;28;20047;-86
2022/08/04 09:04:18;;;;;;;10.55;3.55;;;27.50;99.90;;;;;;4946796;28;20101;-86
2022/08/04 09:06:47;;;;;;;11.60;4.28;;;27.60;99.90;;;;;;5022011;28;20054;-88
2022/08/04 09:09:47;;;;;;;6.10;4.05;;;27.70;99.90;;;;;;4946554;28;20050;-87
2022/08/04 09:12:26;;;;;;;6.70;3.80;;;27.70;99.90;;;;;;4962409;28;20051;-87
2022/08/04 09:14:58;;;;;;;5.15;3.30;;;27.70;99.90;;;;;;4960792;28;20055;-86
2022/08/04 09:17:27;;;;;;;;;;;27.70;99.90;;;;;;4947653;28;20055;-87
2022/08/04 09:20:08;;;;;;;13.98;4.47;;;27.70;99.90;;;;;;4944963;28;19976;-89
2022/08/04 09:22:59;;;;;;;6.55;3.55;;;27.70;99.90;;;;;;4945993;28;20461;-87
2022/08/04 09:25:38;;;;;;;8.45;3.22;;;27.60;99.90;;;;;;4962499;28;20104;-86
2022/08/04 09:28:18;;;;;;;6.68;3.35;;;27.70;99.90;;;;;;4945312;28;20191;-86
2022/08/04 09:30:51;;;;;;;5.18;2.63;;;27.80;99.90;;;;;;4962199;28;20130;-86
2022/08/04 09:33:46;;;;;;;7.63;3.13;;;28.00;99.90;;;;;;4963429;28;20054;-88
2022/08/04 09:36:42;;;;;;;7.00;3.28;;;28.00;99.90;;;;;;4977089;28;20150;-86
2022/08/04 09:39:53;;;;;;;6.25;3.10;;;28.00;99.90;;;;;;4962470;28;20394;-86
2022/08/04 09:42:34;;;;;;;9.15;3.47;;;28.10;99.90;;;;;;4962390;28;20070;-86
2022/08/04 09:45:27;;;;;;;4.78;3.00;;;28.00;99.90;;;;;;4944778;28;20082;-85
2022/08/04 09:48:04;;;;;;;6.28;2.65;;;28.00;99.90;;;;;;4961798;28;20051;-85
2022/08/04 09:50:38;;;;;;;8.05;2.92;;;28.00;99.90;;;;;;4961394;28;20047;-86
2022/08/04 09:53:41;;;;;;;7.03;2.50;;;28.10;99.90;;;;;;4929002;28;20142;-85
2022/08/04 09:56:19;;;;;;;6.43;2.50;;;28.30;99.90;;;;;;4946432;28;20428;-85
2022/08/04 09:59:10;;;;;;;5.35;1.48;;;28.30;99.90;;;;;;4961509;28;20043;-85
2022/08/04 10:01:38;;;;;;;4.65;1.58;;;28.40;99.90;;;;;;4945106;28;20055;-86
2022/08/04 10:04:11;;;;;;;5.10;1.40;;;28.30;99.90;;;;;;4965494;28;20051;-87
2022/08/04 10:06:55;;;;;;;4.43;1.52;;;28.20;99.90;;;;;;4963724;28;20039;-86
2022/08/04 10:10:01;;;;;;;4.18;1.40;;;28.10;99.90;;;;;;4948757;28;20047;-89
2022/08/04 10:12:33;;;;;;;6.97;1.45;;;28.20;99.90;;;;;;4949589;28;20513;-87
2022/08/04 10:15:32;;;;;;;6.70;1.02;;;28.50;99.90;;;;;;4947408;28;20113;-87
2022/08/04 10:18:07;;;;;;;3.97;1.33;;;28.70;99.90;;;;;;4948992;28;20402;-86
2022/08/04 10:20:47;;;;;;;6.28;1.17;;;28.90;99.90;;;;;;4948246;28;20051;-86
2022/08/04 10:23:31;;;;;;;4.53;1.10;;;29.00;99.90;;;;;;4948239;28;20054;-88
2022/08/04 10:26:16;;;;;;;11.55;1.38;;;29.10;99.90;;;;;;4949066;28;20082;-86
2022/08/04 10:28:56;;;;;;;6.82;1.30;;;29.10;99.90;;;;;;4948476;28;20094;-87
2022/08/04 10:31:28;;;;;;;2.72;1.00;;;29.10;99.90;;;;;;4963615;28;20055;-86
2022/08/04 10:34:11;;;;;;;6.28;1.70;;;29.00;99.90;;;;;;4965367;28;20058;-87
2022/08/04 10:36:48;;;;;;;5.40;1.48;;;29.00;99.90;;;;;;4947238;28;20055;-86
2022/08/04 10:39:17;;;;;;;9.63;1.20;;;28.80;99.40;;;;;;4964563;28;20503;-85
2022/08/04 10:41:55;;;;;;;5.40;1.50;;;28.90;99.90;;;;;;4963936;28;20039;-86
2022/08/04 10:44:39;;;;;;;7.85;1.45;;;28.90;99.90;;;;;;4963240;28;20058;-87
2022/08/04 10:47:13;;;;;;;7.50;1.70;;;29.00;99.90;;;;;;4965002;28;20043;-85
2022/08/04 10:49:46;;;;;;;7.18;2.03;;;29.10;99.90;;;;;;4963635;28;20064;-91
2022/08/04 10:52:27;;;;;;;5.22;1.15;;;29.20;99.90;;;;;;4948220;28;20332;-88
2022/08/04 10:55:10;;;;;;;10.82;1.40;;;29.20;99.90;;;;;;4964275;28;20047;-85
2022/08/04 10:57:40;;;;;;;8.52;1.80;;;29.20;99.90;;;;;;4946492;28;20086;-85
2022/08/04 11:00:15;;;;;;;4.75;1.20;;;29.20;99.90;;;;;;4964605;28;20047;-87
2022/08/04 11:02:40;;;;;;;6.15;1.23;;;29.20;99.90;;;;;;4962728;28;20092;-86
2022/08/04 11:05:40;;;;;;;3.92;1.10;;;29.20;99.90;;;;;;4963987;28;20058;-88
2022/08/04 11:08:30;;;;;;;3.65;1.15;;;29.20;99.90;;;;;;4975124;28;20481;-87
2022/08/04 11:11:09;;;;;;;3.85;0.93;;;29.20;99.90;;;;;;4963032;28;20069;-86
2022/08/04 11:13:47;;;;;;;9.93;1.42;;;29.10;99.90;;;;;;4947561;28;20047;-87
2022/08/04 11:16:37;;;;;;;7.43;1.33;;;29.20;99.90;;;;;;4963689;28;20066;-87
2022/08/04 11:19:24;;;;;;;2.40;0.70;;;29.30;99.90;;;;;;4946694;28;20133;-87
2022/08/04 11:22:05;;;;;;;4.07;0.95;;;29.20;99.90;;;;;;4947972;28;20058;-86
2022/08/04 11:24:42;;;;;;;2.92;0.88;;;29.20;99.90;;;;;;4963065;28;20039;-86
2022/08/04 11:27:21;;;;;;;4.03;0.63;;;29.20;99.90;;;;;;4946833;28;20095;-86
2022/08/04 11:30:04;;;;;;;3.67;0.88;;;29.30;99.90;;;;;;4964138;28;20047;-85
2022/08/04 11:33:08;;;;;;;3.08;0.55;;;29.20;99.90;;;;;;4994766;28;20486;-85
2022/08/04 11:35:47;;;;;;;1.55;0.77;;;29.20;99.90;;;;;;4946503;28;20043;-85
2022/08/04 11:38:31;;;;;;;1.48;0.77;;;29.10;99.90;;;;;;4947934;28;20099;-86
2022/08/04 11:41:03;;;;;;;2.60;0.68;;;29.10;99.90;;;;;;4961970;28;20042;-85
2022/08/04 11:43:57;;;;;;;8.00;0.70;;;29.00;99.90;;;;;;4947733;28;20039;-85
2022/08/04 11:46:46;;;;;;;1.95;0.60;;;28.90;99.90;;;;;;4954375;28;20062;-86
2022/08/04 11:49:44;;;;;;;4.60;0.90;;;28.80;99.90;;;;;;4978017;28;20062;-86
2022/08/04 11:52:13;;;;;;;1.90;0.50;;;28.80;99.90;;;;;;4982610;28;20059;-86
2022/08/04 11:54:40;;;;;;;2.17;0.60;;;28.80;99.90;;;;;;4946967;28;20486;-86
2022/08/04 11:57:07;;;;;;;2.85;0.80;;;28.90;99.90;;;;;;4962048;28;20506;-86
2022/08/04 11:59:35;;;;;;;4.60;0.40;;;28.90;99.90;;;;;;4963528;28;20053;-87
2022/08/04 12:02:00;;;;;;;1.92;0.50;;;28.90;99.70;;;;;;4945533;28;20039;-86
2022/08/04 12:04:54;;;;;;;1.02;0.55;;;28.90;99.50;;;;;;4947633;28;20051;-85
2022/08/04 12:07:31;;;;;;;2.15;0.45;;;28.90;98.40;;;;;;4962284;28;20093;-86
2022/08/04 12:10:02;;;;;;;1.80;0.52;;;28.80;98.90;;;;;;4945687;28;20047;-87
2022/08/04 12:12:37;;;;;;;2.08;0.47;;;28.80;98.30;;;;;;4963687;28;20494;-84
2022/08/04 12:15:18;;;;;;;2.30;0.43;;;28.70;98.30;;;;;;4961568;28;20078;-84
2022/08/04 12:17:53;;;;;;;1.25;0.28;;;28.50;98.50;;;;;;4963090;28;20105;-87
2022/08/04 12:20:23;;;;;;;3.20;0.40;;;28.40;97.60;;;;;;4946280;28;20076;-86
2022/08/04 12:22:51;;;;;;;1.02;0.50;;;28.30;97.80;;;;;;4945242;28;20050;-86
2022/08/04 12:25:28;;;;;;;1.60;0.50;;;28.00;97.70;;;;;;4962225;28;20051;-84
2022/08/04 12:27:59;;;;;;;2.17;0.50;;;27.90;98.10;;;;;;4960951;28;20042;-86
2022/08/04 12:30:29;;;;;;;6.37;0.60;;;27.80;98.60;;;;;;4946983;28;20074;-87
2022/08/04 12:33:19;;;;;;;1.88;0.50;;;27.70;98.50;;;;;;4961689;28;20061;-87
2022/08/04 12:36:28;;;;;;;0.80;0.40;;;27.60;98.30;;;;;;4945040;28;20042;-87
2022/08/04 12:39:01;;;;;;;2.67;0.57;;;27.50;97.80;;;;;;5026587;28;20072;-87
2022/08/04 12:41:54;;;;;;;2.35;0.30;;;27.30;98.50;;;;;;5024862;28;20132;-86
2022/08/04 12:44:20;;;;;;;;;;;27.30;99.10;;;;;;4958442;28;20058;-86
2022/08/04 12:46:47;;;;;;;3.22;0.63;;;27.20;99.00;;;;;;4947026;28;20428;-85
2022/08/04 12:49:15;;;;;;;2.10;0.65;;;27.10;99.50;;;;;;4944365;28;20057;-86
2022/08/04 12:51:43;;;;;;;2.67;0.80;;;27.10;99.40;;;;;;4946289;28;20108;-85
2022/08/04 12:54:11;;;;;;;1.70;0.90;;;27.10;99.50;;;;;;4961022;28;20061;-85
2022/08/04 12:56:38;;;;;;;1.55;0.47;;;27.10;99.30;;;;;;4929629;28;20051;-87
2022/08/04 12:59:09;;;;;;;2.63;0.50;;;27.30;99.50;;;;;;4945840;28;20495;-87
2022/08/04 13:01:35;;;;;;;1.55;0.40;;;27.60;99.20;;;;;;4977147;28;20050;-86
2022/08/04 13:04:15;;;;;;;1.33;0.40;;;27.80;98.60;;;;;;4946362;28;20038;-86
2022/08/04 13:06:43;;;;;;;2.25;0.45;;;27.90;97.30;;;;;;4944418;28;20137;-86
2022/08/04 13:09:15;;;;;;;1.65;0.40;;;27.90;97.30;;;;;;4978610;28;20488;-87
2022/08/04 13:11:43;;;;;;;;;;;27.90;97.10;;;;;;4962272;28;20132;-85
2022/08/04 13:14:11;;;;;;;4.72;0.50;;;27.90;95.10;;;;;;4944477;28;20282;-86
2022/08/04 13:16:37;;;;;;;2.00;0.70;;;28.00;97.40;;;;;;4946243;28;20521;-86
2022/08/04 13:19:07;;;;;;;3.50;0.82;;;27.90;97.10;;;;;;4944150;28;20123;-86
2022/08/04 13:21:34;;;;;;;2.78;0.40;;;27.90;96.80;;;;;;4946194;28;20103;-84
2022/08/04 13:24:12;;;;;;;5.57;0.73;;;27.90;96.60;;;;;;4944727;28;20054;-85
2022/08/04 13:27:09;;;;;;;0.80;0.40;;;28.00;96.70;;;;;;4945107;28;20058;-84
2022/08/04 13:29:43;;;;;;;0.70;0.40;;;28.10;96.50;;;;;;4962691;28;20343;-83
2022/08/04 13:32:14;;;;;;;2.30;0.40;;;28.30;96.30;;;;;;4943906;28;20050;-84
2022/08/04 13:34:42;;;;;;;1.33;0.40;;;28.30;96.40;;;;;;4946231;28;20515;-84